createdAt,value
2018-09-29T00:00:18.633Z,2.53
2018-09-29T00:02:47.051Z,2.30
2018-09-29T00:05:15.467Z,2.60
2018-09-29T00:07:43.891Z,2.43
2018-09-29T00:10:12.319Z,2.43
2018-09-29T00:12:40.672Z,2.10
2018-09-29T00:15:09.162Z,2.40
2018-09-29T00:17:37.555Z,2.13
2018-09-29T00:20:06.002Z,1.87
2018-09-29T00:22:34.399Z,2.53
2018-09-29T00:25:02.788Z,2.30
2018-09-29T00:27:31.221Z,2.70
2018-09-29T00:29:59.594Z,2.77
2018-09-29T00:32:28.218Z,2.50
2018-09-29T00:34:56.703Z,2.20
2018-09-29T00:37:25.112Z,2.50
2018-09-29T00:39:53.496Z,2.13
2018-09-29T00:42:21.899Z,2.43
2018-09-29T00:44:50.492Z,2.57
2018-09-29T00:47:18.963Z,2.63
2018-09-29T00:49:47.350Z,2.77
2018-09-29T00:52:15.742Z,2.07
2018-09-29T00:54:44.364Z,2.27
2018-09-29T00:57:12.897Z,2.60
2018-09-29T00:59:41.267Z,2.57
2018-09-29T01:02:09.668Z,2.30
2018-09-29T01:04:38.347Z,2.80
2018-09-29T01:07:06.948Z,2.00
2018-09-29T01:09:35.420Z,3.03
2018-09-29T01:12:03.804Z,2.33
2018-09-29T01:14:32.212Z,2.60
2018-09-29T01:17:00.815Z,2.17
2018-09-29T01:19:29.418Z,2.47
2018-09-29T01:21:58.131Z,2.77
2018-09-29T01:24:26.968Z,2.30
2018-09-29T01:26:55.755Z,2.67
2018-09-29T01:29:24.491Z,2.17
2018-09-29T01:31:53.186Z,2.67
2018-09-29T01:34:21.879Z,2.77
2018-09-29T01:36:50.570Z,2.30
2018-09-29T01:39:19.058Z,2.17
2018-09-29T01:41:47.459Z,2.07
2018-09-29T01:44:15.859Z,2.20
2018-09-29T01:46:44.459Z,2.80
2018-09-29T01:49:14.011Z,2.17
2018-09-29T01:51:42.626Z,3.13
2018-09-29T01:54:11.107Z,2.70
2018-09-29T01:56:39.511Z,2.63
2018-09-29T01:59:07.893Z,2.07
2018-09-29T02:01:36.275Z,2.43
2018-09-29T02:04:04.679Z,2.43
2018-09-29T02:06:33.098Z,1.87
2018-09-29T02:09:01.508Z,2.27
2018-09-29T02:11:30.139Z,2.63
2018-09-29T02:13:58.551Z,2.77
2018-09-29T02:16:26.959Z,2.33
2018-09-29T02:18:55.381Z,2.00
2018-09-29T02:21:23.739Z,2.80
2018-09-29T02:23:52.131Z,2.30
2018-09-29T02:26:20.548Z,1.93
2018-09-29T02:28:48.989Z,1.90
2018-09-29T02:31:17.363Z,2.87
2018-09-29T02:33:45.936Z,2.07
2018-09-29T02:36:14.633Z,2.30
2018-09-29T02:38:43.106Z,2.27
2018-09-29T02:41:11.679Z,2.03
2018-09-29T02:43:40.098Z,2.63
2018-09-29T02:46:08.523Z,2.17
2018-09-29T02:48:36.938Z,2.13
2018-09-29T02:51:05.434Z,2.40
2018-09-29T02:53:33.812Z,2.27
2018-09-29T02:56:02.233Z,2.57
2018-09-29T02:58:30.836Z,2.00
2018-09-29T03:00:59.318Z,2.47
2018-09-29T03:03:27.727Z,3.47
2018-09-29T03:05:56.316Z,2.00
2018-09-29T03:08:25.019Z,1.93
2018-09-29T03:10:53.758Z,2.03
2018-09-29T03:13:22.459Z,1.60
2018-09-29T03:15:51.142Z,2.53
2018-09-29T03:18:20.082Z,1.73
2018-09-29T03:20:48.602Z,2.27
2018-09-29T03:23:17.009Z,2.30
2018-09-29T03:25:45.345Z,1.90
2018-09-29T03:28:13.736Z,2.30
2018-09-29T03:30:42.346Z,2.23
2018-09-29T03:33:11.059Z,1.93
2018-09-29T03:35:39.519Z,2.20
2018-09-29T03:38:07.923Z,2.17
2018-09-29T03:40:36.347Z,2.63
2018-09-29T03:43:04.968Z,2.60
2018-09-29T03:45:33.426Z,2.70
2018-09-29T03:48:01.827Z,2.50
2018-09-29T03:50:35.242Z,2.63
2018-09-29T03:53:03.889Z,2.50
2018-09-29T03:55:32.572Z,2.30
2018-09-29T03:58:01.039Z,2.33
2018-09-29T04:00:29.438Z,2.60
2018-09-29T04:02:57.814Z,2.23
2018-09-29T04:05:26.195Z,2.33
2018-09-29T04:07:54.595Z,2.30
2018-09-29T04:10:23.004Z,2.40
2018-09-29T04:12:51.404Z,2.47
2018-09-29T04:15:19.866Z,2.20
2018-09-29T04:17:48.269Z,2.50
2018-09-29T04:20:16.654Z,2.70
2018-09-29T04:22:45.044Z,2.23
2018-09-29T04:25:13.674Z,2.40
2018-09-29T04:27:42.026Z,2.80
2018-09-29T04:30:10.647Z,2.23
2018-09-29T04:32:39.131Z,2.30
2018-09-29T04:35:07.515Z,2.90
2018-09-29T04:37:35.920Z,2.43
2018-09-29T04:40:04.560Z,2.87
2018-09-29T04:42:33.191Z,2.03
2018-09-29T04:45:02.007Z,2.90
2018-09-29T04:47:30.616Z,3.10
2018-09-29T04:49:59.105Z,2.57
2018-09-29T04:52:27.532Z,2.37
2018-09-29T04:54:55.987Z,2.13
2018-09-29T04:57:24.580Z,2.30
2018-09-29T04:59:53.067Z,2.70
2018-09-29T05:02:21.452Z,2.50
2018-09-29T05:04:49.852Z,2.40
2018-09-29T05:07:18.256Z,3.17
2018-09-29T05:09:46.939Z,3.07
2018-09-29T05:12:15.426Z,3.17
2018-09-29T05:14:43.822Z,2.90
2018-09-29T05:17:12.215Z,3.20
2018-09-29T05:19:40.583Z,3.10
2018-09-29T05:22:08.983Z,3.40
2018-09-29T05:24:37.492Z,4.80
2018-09-29T05:27:07.268Z,2.80
2018-09-29T05:29:35.775Z,3.53
2018-09-29T05:32:04.380Z,3.40
2018-09-29T05:34:32.847Z,2.73
2018-09-29T05:37:01.264Z,3.10
2018-09-29T05:39:29.647Z,2.60
2018-09-29T05:41:58.268Z,2.20
2018-09-29T05:44:26.764Z,2.47
2018-09-29T05:46:55.150Z,2.23
2018-09-29T05:49:23.549Z,2.80
2018-09-29T05:51:52.178Z,1.83
2018-09-29T05:54:20.781Z,2.77
2018-09-29T05:56:49.256Z,2.50
2018-09-29T05:59:17.646Z,1.93
2018-09-29T06:01:48.391Z,2.13
2018-09-29T06:04:16.759Z,2.70
2018-09-29T06:06:45.370Z,2.80
2018-09-29T06:09:13.852Z,2.70
2018-09-29T06:11:42.452Z,1.83
2018-09-29T06:14:11.660Z,2.23
2018-09-29T06:16:40.260Z,1.97
2018-09-29T06:19:08.952Z,2.30
2018-09-29T06:21:37.444Z,2.53
2018-09-29T06:24:05.831Z,2.13
2018-09-29T06:26:34.451Z,2.43
2018-09-29T06:29:03.184Z,2.33
2018-09-29T06:31:31.718Z,2.17
2018-09-29T06:34:00.344Z,2.37
2018-09-29T06:36:29.055Z,2.40
2018-09-29T06:38:57.943Z,2.40
2018-09-29T06:41:26.648Z,2.40
2018-09-29T06:43:55.356Z,2.50
2018-09-29T06:46:24.043Z,2.10
2018-09-29T06:48:52.764Z,2.50
2018-09-29T06:51:21.307Z,2.10
2018-09-29T06:53:49.907Z,2.70
2018-09-29T06:56:18.591Z,2.00
2018-09-29T06:58:47.321Z,1.90
2018-09-29T07:01:15.856Z,2.77
2018-09-29T07:03:44.460Z,2.30
2018-09-29T07:06:13.172Z,1.80
2018-09-29T07:08:41.656Z,2.30
2018-09-29T07:11:10.259Z,2.27
2018-09-29T07:13:38.967Z,2.43
2018-09-29T07:16:07.464Z,2.33
2018-09-29T07:18:36.068Z,2.10
2018-09-29T07:21:04.785Z,2.10
2018-09-29T07:23:33.903Z,1.90
2018-09-29T07:26:02.498Z,2.00
2018-09-29T07:28:31.200Z,1.80
2018-09-29T07:30:59.682Z,2.50
2018-09-29T07:33:30.051Z,2.00
2018-09-29T07:35:58.632Z,2.73
2018-09-29T07:38:27.117Z,2.20
2018-09-29T07:40:55.557Z,2.33
2018-09-29T07:43:24.243Z,1.70
2018-09-29T07:45:52.715Z,1.93
2018-09-29T07:48:21.098Z,1.90
2018-09-29T07:50:49.583Z,2.43
2018-09-29T07:53:18.879Z,2.13
2018-09-29T07:55:47.370Z,2.07
2018-09-29T07:58:16.037Z,2.20
2018-09-29T08:00:44.873Z,2.10
2018-09-29T08:03:13.503Z,2.53
2018-09-29T08:05:42.231Z,2.00
2018-09-29T08:08:10.938Z,2.20
2018-09-29T08:10:39.668Z,2.00
2018-09-29T08:13:08.398Z,1.93
2018-09-29T08:15:37.071Z,1.90
2018-09-29T08:18:05.992Z,2.00
2018-09-29T08:20:34.859Z,1.70
2018-09-29T08:23:03.554Z,2.10
2018-09-29T08:25:32.255Z,1.87
2018-09-29T08:28:01.268Z,2.03
2018-09-29T08:30:29.651Z,1.70
2018-09-29T08:32:58.268Z,2.20
2018-09-29T08:35:26.976Z,2.17
2018-09-29T08:37:56.446Z,1.80
2018-09-29T08:40:24.988Z,1.97
2018-09-29T08:42:53.465Z,2.30
2018-09-29T08:45:22.376Z,1.90
2018-09-29T08:47:51.011Z,1.90
2018-09-29T08:50:19.511Z,1.83
2018-09-29T08:52:48.661Z,1.97
2018-09-29T08:55:18.249Z,1.70
2018-09-29T08:57:47.345Z,1.80
2018-09-29T09:00:15.725Z,1.73
2018-09-29T09:02:44.461Z,1.80
2018-09-29T09:05:13.195Z,2.23
2018-09-29T09:07:41.686Z,1.87
2018-09-29T09:10:10.085Z,1.87
2018-09-29T09:12:38.779Z,1.63
2018-09-29T09:15:07.276Z,1.43
2018-09-29T09:17:35.771Z,2.00
2018-09-29T09:20:04.676Z,1.80
2018-09-29T09:22:33.412Z,2.07
2018-09-29T09:25:02.116Z,1.83
2018-09-29T09:27:30.864Z,1.53
2018-09-29T09:29:59.668Z,2.60
2018-09-29T09:32:28.481Z,1.40
2018-09-29T09:34:57.199Z,1.97
2018-09-29T09:37:25.879Z,1.70
2018-09-29T09:39:54.584Z,2.00
2018-09-29T09:42:23.283Z,1.90
2018-09-29T09:44:51.770Z,1.90
2018-09-29T09:47:20.389Z,2.13
2018-09-29T09:49:49.133Z,1.70
2018-09-29T09:52:17.646Z,1.67
2018-09-29T09:54:46.140Z,1.77
2018-09-29T09:57:14.756Z,2.03
2018-09-29T09:59:43.467Z,2.00
2018-09-29T10:02:22.494Z,1.70
2018-09-29T10:04:51.105Z,1.63
2018-09-29T10:07:19.571Z,1.63
2018-09-29T10:09:48.211Z,1.50
2018-09-29T10:12:16.912Z,1.67
2018-09-29T10:14:45.374Z,1.60
2018-09-29T10:17:13.774Z,1.83
2018-09-29T10:19:42.404Z,2.80
2018-09-29T10:22:10.887Z,2.53
2018-09-29T10:24:39.503Z,2.00
2018-09-29T10:27:07.996Z,1.33
2018-09-29T10:29:36.584Z,1.50
2018-09-29T10:32:05.391Z,1.60
2018-09-29T10:34:35.100Z,1.30
2018-09-29T10:37:03.584Z,1.40
2018-09-29T10:39:32.213Z,1.40
2018-09-29T10:42:01.023Z,1.80
2018-09-29T10:44:29.499Z,1.70
2018-09-29T10:46:58.120Z,1.43
2018-09-29T10:49:26.599Z,1.40
2018-09-29T10:52:00.265Z,1.30
2018-09-29T10:54:28.963Z,1.20
2018-09-29T10:56:57.451Z,1.60
2018-09-29T10:59:25.871Z,1.67
2018-09-29T11:01:54.668Z,1.60
2018-09-29T11:04:23.335Z,1.30
2018-09-29T11:06:51.779Z,1.60
2018-09-29T11:09:20.169Z,1.33
2018-09-29T11:11:48.836Z,1.60
2018-09-29T11:14:17.371Z,1.53
2018-09-29T11:16:45.715Z,1.70
2018-09-29T11:19:14.328Z,1.70
2018-09-29T11:21:43.036Z,2.07
2018-09-29T11:24:11.519Z,1.60
2018-09-29T11:26:39.909Z,1.33
2018-09-29T11:29:08.560Z,1.67
2018-09-29T11:31:37.276Z,1.27
2018-09-29T11:34:05.827Z,1.43
2018-09-29T11:36:34.477Z,1.70
2018-09-29T11:39:03.952Z,1.50
2018-09-29T11:41:32.466Z,1.63
2018-09-29T11:44:01.097Z,1.53
2018-09-29T11:46:29.584Z,1.70
2018-09-29T11:48:58.462Z,1.50
2018-09-29T11:51:42.095Z,1.53
2018-09-29T11:54:11.675Z,1.60
2018-09-29T11:56:40.251Z,2.00
2018-09-29T11:59:09.775Z,1.60
2018-09-29T12:01:39.734Z,1.43
2018-09-29T12:04:11.975Z,1.53
2018-09-29T12:06:41.466Z,1.57
2018-09-29T12:09:11.639Z,2.03
2018-09-29T12:11:40.244Z,1.70
2018-09-29T12:14:08.863Z,1.80
2018-09-29T12:16:37.655Z,1.90
2018-09-29T12:19:06.421Z,1.70
2018-09-29T12:21:34.909Z,1.50
2018-09-29T12:24:03.307Z,1.50
2018-09-29T12:26:31.730Z,1.73
2018-09-29T12:29:00.148Z,1.77
2018-09-29T12:31:28.594Z,1.80
2018-09-29T12:33:56.956Z,2.10
2018-09-29T12:36:25.566Z,1.87
2018-09-29T12:38:54.264Z,1.63
2018-09-29T12:41:22.767Z,2.07
2018-09-29T12:43:51.163Z,1.80
2018-09-29T12:46:19.531Z,1.90
2018-09-29T12:48:47.956Z,1.60
2018-09-29T12:51:16.399Z,2.10
2018-09-29T12:53:44.993Z,1.83
2018-09-29T12:56:13.730Z,2.83
2018-09-29T12:58:42.434Z,2.83
2018-09-29T13:01:10.903Z,2.17
2018-09-29T13:03:39.511Z,1.90
2018-09-29T13:06:08.213Z,1.70
2018-09-29T13:08:36.904Z,1.73
2018-09-29T13:11:05.414Z,1.40
2018-09-29T13:13:33.805Z,1.33
2018-09-29T13:16:02.180Z,1.50
2018-09-29T13:18:30.611Z,1.30
2018-09-29T13:20:59.233Z,1.73
2018-09-29T13:23:27.704Z,2.00
2018-09-29T13:25:56.351Z,1.70
2018-09-29T13:28:25.060Z,1.60
2018-09-29T13:30:53.551Z,1.50
2018-09-29T13:33:21.999Z,1.30
2018-09-29T13:35:50.589Z,1.80
2018-09-29T13:38:19.303Z,1.50
2018-09-29T13:40:47.838Z,1.60
2018-09-29T13:43:16.258Z,1.47
2018-09-29T13:45:44.658Z,1.80
2018-09-29T13:48:13.095Z,1.70
2018-09-29T13:50:41.733Z,1.40
2018-09-29T13:53:10.427Z,1.60
2018-09-29T13:55:39.143Z,1.67
2018-09-29T13:58:07.829Z,1.37
2018-09-29T14:00:36.523Z,1.70
2018-09-29T14:03:05.244Z,1.80
2018-09-29T14:05:33.724Z,1.60
2018-09-29T14:08:02.320Z,1.80
2018-09-29T14:10:31.230Z,1.60
2018-09-29T14:12:59.836Z,1.80
2018-09-29T14:15:28.318Z,1.40
2018-09-29T14:17:56.711Z,1.60
2018-09-29T14:20:25.320Z,1.43
2018-09-29T14:22:53.868Z,1.90
2018-09-29T14:25:22.477Z,1.90
2018-09-29T14:27:51.211Z,1.40
2018-09-29T14:30:19.728Z,1.90
2018-09-29T14:32:48.365Z,1.80
2018-09-29T14:35:17.120Z,1.60
2018-09-29T14:37:45.684Z,1.67
2018-09-29T14:40:14.089Z,2.30
2018-09-29T14:42:43.200Z,2.30
2018-09-29T14:45:11.779Z,2.00
2018-09-29T14:47:40.110Z,1.77
2018-09-29T14:50:08.542Z,1.80
2018-09-29T14:52:37.062Z,1.73
2018-09-29T14:55:05.743Z,1.80
2018-09-29T14:57:34.245Z,1.73
2018-09-29T15:00:02.634Z,1.73
2018-09-29T15:02:31.356Z,1.90
2018-09-29T15:04:59.980Z,2.50
2018-09-29T15:07:28.522Z,6.07
2018-09-29T15:09:57.148Z,3.80
2018-09-29T15:12:26.383Z,4.23
2018-09-29T15:14:56.466Z,4.53
2018-09-29T15:17:25.603Z,2.93
2018-09-29T15:19:54.046Z,2.57
2018-09-29T15:22:22.439Z,2.10
2018-09-29T15:24:51.084Z,2.00
2018-09-29T15:27:19.595Z,2.37
2018-09-29T15:29:48.321Z,1.53
2018-09-29T15:32:16.936Z,2.17
2018-09-29T15:34:45.676Z,1.60
2018-09-29T15:37:14.377Z,1.80
2018-09-29T15:39:43.095Z,1.80
2018-09-29T15:42:11.579Z,2.20
2018-09-29T15:44:39.988Z,1.50
2018-09-29T15:47:08.400Z,1.60
2018-09-29T15:49:36.819Z,2.33
2018-09-29T15:52:05.309Z,2.00
2018-09-29T15:54:33.698Z,2.00
2018-09-29T15:57:02.141Z,2.00
2018-09-29T15:59:30.525Z,2.07
2018-09-29T16:01:59.213Z,1.83
2018-09-29T16:04:27.696Z,2.30
2018-09-29T16:06:56.451Z,2.40
2018-09-29T16:09:25.168Z,1.80
2018-09-29T16:11:53.649Z,2.10
2018-09-29T16:14:22.051Z,1.37
2018-09-29T16:16:50.682Z,1.70
2018-09-29T16:19:19.304Z,2.07
2018-09-29T16:21:47.797Z,2.00
2018-09-29T16:24:16.196Z,2.03
2018-09-29T16:26:44.800Z,2.47
2018-09-29T16:29:15.939Z,1.90
2018-09-29T16:31:44.343Z,2.50
2018-09-29T16:34:12.978Z,2.13
2018-09-29T16:37:00.084Z,2.50
2018-09-29T16:39:31.736Z,2.37
2018-09-29T16:42:00.419Z,2.07
2018-09-29T16:44:29.115Z,2.40
2018-09-29T16:46:57.590Z,2.00
2018-09-29T16:49:25.997Z,2.30
2018-09-29T16:51:54.631Z,2.20
2018-09-29T16:54:23.331Z,2.10
2018-09-29T16:56:51.822Z,2.30
2018-09-29T16:59:20.229Z,3.23
2018-09-29T17:01:48.889Z,2.40
2018-09-29T17:04:17.410Z,2.50
2018-09-29T17:06:45.762Z,2.27
2018-09-29T17:09:14.164Z,1.97
2018-09-29T17:11:42.766Z,2.23
2018-09-29T17:14:11.524Z,2.00
2018-09-29T17:16:41.426Z,1.87
2018-09-29T17:19:09.783Z,1.73
2018-09-29T17:21:38.429Z,2.10
2018-09-29T17:24:06.894Z,1.90
2018-09-29T17:26:35.788Z,2.30
2018-09-29T17:29:04.360Z,2.10
2018-09-29T17:31:32.822Z,1.90
2018-09-29T17:34:02.984Z,2.20
2018-09-29T17:36:33.556Z,2.00
2018-09-29T17:39:02.846Z,2.20
2018-09-29T17:41:31.814Z,2.40
2018-09-29T17:44:01.300Z,2.30
2018-09-29T17:46:30.217Z,2.70
2018-09-29T17:48:58.599Z,2.70
2018-09-29T17:51:27.263Z,3.50
2018-09-29T17:53:55.764Z,3.13
2018-09-29T17:56:24.168Z,2.10
2018-09-29T17:58:52.899Z,2.73
2018-09-29T18:01:21.685Z,2.70
2018-09-29T18:03:51.081Z,4.00
2018-09-29T18:06:19.490Z,3.43
2018-09-29T18:08:47.925Z,8.03
2018-09-29T18:11:16.650Z,6.80
2018-09-29T18:13:45.189Z,7.27
2018-09-29T18:16:13.848Z,7.20
2018-09-29T18:18:42.580Z,4.87
2018-09-29T18:23:45.135Z,4.60
2018-09-29T18:26:13.565Z,4.07
2018-09-29T18:28:41.954Z,5.20
2018-09-29T18:31:10.374Z,2.60
2018-09-29T18:33:38.826Z,2.50
2018-09-29T18:36:07.612Z,2.40
2018-09-29T18:38:36.261Z,2.10
2018-09-29T18:41:04.780Z,2.10
2018-09-29T18:43:33.199Z,2.90
2018-09-29T18:46:01.721Z,1.87
2018-09-29T18:48:30.153Z,1.70
2018-09-29T18:50:58.542Z,2.50
2018-09-29T18:53:27.054Z,1.90
2018-09-29T18:55:55.461Z,2.17
2018-09-29T18:58:23.864Z,2.00
2018-09-29T19:00:52.485Z,1.70
2018-09-29T19:03:21.019Z,2.00
2018-09-29T19:05:49.402Z,2.20
2018-09-29T19:08:17.774Z,2.00
2018-09-29T19:10:46.391Z,1.80
2018-09-29T19:13:14.873Z,2.10
2018-09-29T19:15:43.247Z,2.13
2018-09-29T19:18:11.662Z,1.97
2018-09-29T19:20:40.072Z,2.10
2018-09-29T19:23:08.454Z,2.20
2018-09-29T19:25:36.992Z,2.50
2018-09-29T19:28:05.611Z,1.93
2018-09-29T19:30:34.131Z,2.07
2018-09-29T19:33:02.547Z,2.47
2018-09-29T19:35:30.928Z,1.90
2018-09-29T19:37:59.303Z,2.37
2018-09-29T19:40:27.723Z,1.83
2018-09-29T19:42:56.123Z,1.90
2018-09-29T19:45:24.508Z,2.03
2018-09-29T19:47:53.122Z,2.17
2018-09-29T19:50:21.902Z,1.90
2018-09-29T19:52:50.595Z,1.90
2018-09-29T19:55:19.089Z,2.00
2018-09-29T19:57:47.469Z,1.80
2018-09-29T20:00:15.855Z,2.03
2018-09-29T20:02:44.477Z,2.03
2018-09-29T20:05:13.172Z,1.90
2018-09-29T20:07:41.663Z,2.00
2018-09-29T20:10:10.103Z,2.00
2018-09-29T20:12:38.464Z,1.90
2018-09-29T20:15:07.058Z,1.90
2018-09-29T20:17:35.768Z,2.67
2018-09-29T20:20:04.451Z,2.17
2018-09-29T20:22:33.139Z,2.30
2018-09-29T20:25:01.628Z,1.80
2018-09-29T20:27:29.999Z,2.00
2018-09-29T20:29:58.379Z,2.00
2018-09-29T20:32:26.807Z,1.90
2018-09-29T20:34:55.212Z,1.80
2018-09-29T20:37:23.672Z,1.70
2018-09-29T20:39:51.990Z,1.93
2018-09-29T20:42:20.386Z,1.90
2018-09-29T20:44:48.783Z,2.07
2018-09-29T20:47:17.179Z,2.03
2018-09-29T20:49:45.571Z,2.20
2018-09-29T20:52:13.967Z,2.07
2018-09-29T20:54:42.358Z,2.27
2018-09-29T20:57:10.739Z,1.97
2018-09-29T20:59:39.124Z,2.20
2018-09-29T21:02:07.607Z,2.20
2018-09-29T21:04:36.073Z,2.00
2018-09-29T21:07:04.463Z,1.73
2018-09-29T21:09:32.898Z,2.00
2018-09-29T21:12:01.414Z,1.47
2018-09-29T21:14:29.809Z,2.10
2018-09-29T21:16:58.204Z,2.13
2018-09-29T21:19:26.587Z,2.43
2018-09-29T21:21:54.987Z,3.57
2018-09-29T21:24:23.391Z,3.23
2018-09-29T21:26:51.768Z,2.50
2018-09-29T21:29:20.147Z,2.97
2018-09-29T21:31:48.558Z,2.10
2018-09-29T21:34:16.942Z,1.90
2018-09-29T21:36:45.319Z,1.93
2018-09-29T21:39:13.726Z,2.30
2018-09-29T21:41:42.141Z,2.67
2018-09-29T21:44:10.567Z,2.47
2018-09-29T21:46:38.986Z,2.60
2018-09-29T21:49:07.408Z,2.17
2018-09-29T21:51:35.808Z,2.03
2018-09-29T21:54:04.210Z,2.20
2018-09-29T21:56:32.591Z,2.30
2018-09-29T21:59:00.978Z,2.27
2018-09-29T22:01:31.129Z,2.30
2018-09-29T22:04:00.111Z,2.07
2018-09-29T22:06:28.739Z,2.27
2018-09-29T22:08:57.468Z,1.87
2018-09-29T22:11:25.875Z,2.20
2018-09-29T22:13:54.571Z,1.80
2018-09-29T22:16:23.061Z,2.23
2018-09-29T22:18:51.449Z,2.03
2018-09-29T22:21:19.868Z,1.90
2018-09-29T22:23:48.266Z,2.00
2018-09-29T22:26:16.647Z,2.20
2018-09-29T22:28:45.031Z,2.00
2018-09-29T22:31:13.456Z,2.07
2018-09-29T22:33:41.835Z,2.30
2018-09-29T22:36:10.207Z,2.50
2018-09-29T22:38:38.616Z,2.10
2018-09-29T22:41:07.016Z,2.30
2018-09-29T22:43:35.418Z,2.13
2018-09-29T22:46:03.852Z,2.40
2018-09-29T22:48:32.250Z,2.20
2018-09-29T22:51:00.627Z,2.20
2018-09-29T22:53:29.036Z,2.33
2018-09-29T22:55:57.437Z,2.10
2018-09-29T22:58:25.818Z,2.40
2018-09-29T23:00:54.246Z,2.30
2018-09-29T23:03:22.661Z,2.30
2018-09-29T23:05:51.034Z,2.30
2018-09-29T23:08:19.651Z,2.60
2018-09-29T23:10:48.148Z,2.03
2018-09-29T23:13:16.540Z,2.20
2018-09-29T23:15:44.971Z,2.63
2018-09-29T23:18:13.579Z,2.33
2018-09-29T23:20:42.048Z,2.03
2018-09-29T23:23:10.448Z,2.20
2018-09-29T23:25:38.814Z,2.40
2018-09-29T23:28:07.419Z,2.40
2018-09-29T23:30:35.909Z,2.70
2018-09-29T23:33:04.308Z,2.13
2018-09-29T23:35:32.697Z,1.97
2018-09-29T23:38:01.078Z,2.00
2018-09-29T23:40:29.680Z,1.80
2018-09-29T23:42:58.194Z,2.10
2018-09-29T23:45:26.599Z,2.50
2018-09-29T23:47:55.224Z,2.10
2018-09-29T23:50:23.909Z,2.00
2018-09-29T23:52:52.687Z,2.20
2018-09-29T23:55:21.367Z,1.90
2018-09-29T23:57:49.832Z,2.53
